Time;durP1;ratioP1;P1;durP2;ratioP2;P2;SDS_P1;SDS_P2;PMS_P1;PMS_P2;Temp;Humidity;BMP_temperature;BMP_pressure;BME280_temperature;BME280_humidity;BME280_pressure;Samples;Min_cycle;Max_cycle;Signal;HPM_P1;HPM_P2
2022/07/30 00:00:53;;;;;;;12.60;5.80;;;;;;;19.35;56.14;101928.06;5131733;28;20416;-75
2022/07/30 00:03:26;;;;;;;12.82;5.97;;;;;;;19.32;56.23;101922.19;5130188;28;20434;-75
2022/07/30 00:05:58;;;;;;;15.73;5.65;;;;;;;19.29;56.28;101918.06;5136984;28;20467;-75
2022/07/30 00:08:32;;;;;;;15.90;5.93;;;;;;;19.27;56.36;101911.22;5135162;28;20425;-75
2022/07/30 00:11:04;;;;;;;11.18;6.47;;;;;;;19.24;56.46;101909.72;5132924;28;20909;-76
2022/07/30 00:13:37;;;;;;;13.82;5.68;;;;;;;19.22;56.60;101906.38;5131047;28;20416;-77
2022/07/30 00:16:10;;;;;;;11.73;5.65;;;;;;;19.18;56.54;101905.09;5132051;28;20442;-77
2022/07/30 00:18:42;;;;;;;13.43;6.30;;;;;;;19.17;56.62;101897.22;5130494;28;20420;-77
2022/07/30 00:21:15;;;;;;;13.43;6.45;;;;;;;19.13;56.73;101902.13;5129923;28;20421;-76
2022/07/30 00:23:48;;;;;;;10.35;5.78;;;;;;;18.94;56.71;101871.31;5128649;28;20500;-76
2022/07/30 00:26:21;;;;;;;10.90;5.55;;;;;;;19.07;56.91;101892.13;5130958;28;20803;-75
2022/07/30 00:28:53;;;;;;;12.73;6.00;;;;;;;19.03;56.82;101888.97;5128764;28;20446;-76
2022/07/30 00:31:25;;;;;;;11.70;6.10;;;;;;;19.03;56.91;101890.81;5132245;28;20434;-76
2022/07/30 00:33:57;;;;;;;13.57;6.10;;;;;;;19.00;56.96;101889.34;5129220;28;21351;-75
2022/07/30 00:36:30;;;;;;;10.27;6.20;;;;;;;18.97;57.07;101883.50;5131837;28;20756;-75
2022/07/30 00:39:03;;;;;;;13.68;5.72;;;;;;;18.93;57.12;101890.25;5130212;28;20823;-74
2022/07/30 00:41:51;;;;;;;12.93;5.45;;;;;;;18.88;57.16;101882.75;5128431;28;21055;-75
2022/07/30 00:44:23;;;;;;;10.27;5.43;;;;;;;18.87;57.31;101887.25;5129619;28;20931;-75
2022/07/30 00:46:56;;;;;;;10.63;6.07;;;;;;;18.84;57.31;101887.63;5139842;28;20432;-76
2022/07/30 00:49:29;;;;;;;17.02;6.85;;;;;;;18.81;57.32;101877.28;5126620;28;20437;-75
2022/07/30 00:52:01;;;;;;;16.03;7.60;;;;;;;18.79;57.43;101881.97;5128930;28;21007;-75
2022/07/30 00:54:35;;;;;;;11.43;6.20;;;;;;;18.74;57.64;101875.50;5128733;28;20430;-75
2022/07/30 00:57:07;;;;;;;12.80;6.22;;;;;;;18.74;57.55;101878.19;5128502;28;20432;-74
2022/07/30 00:59:39;;;;;;;12.15;6.43;;;;;;;18.71;57.62;101876.66;5129851;28;20419;-76
2022/07/30 01:02:12;;;;;;;13.88;6.32;;;;;;;18.67;57.63;101876.19;5138295;28;20416;-75
2022/07/30 01:04:44;;;;;;;12.20;5.72;;;;;;;18.63;57.79;101871.34;5130972;28;20896;-75
2022/07/30 01:07:17;;;;;;;15.03;5.37;;;;;;;18.62;57.89;101872.38;5128379;28;20412;-75
2022/07/30 01:09:50;;;;;;;13.32;6.13;;;;;;;18.59;57.86;101872.72;5139189;28;20410;-75
2022/07/30 01:12:26;;;;;;;11.25;6.43;;;;;;;18.56;58.03;101873.06;5130550;28;20418;-74
2022/07/30 01:15:02;;;;;;;9.57;5.80;;;;;;;18.52;58.04;101867.25;5128802;28;20419;-75
2022/07/30 01:17:35;;;;;;;8.55;6.18;;;;;;;18.44;58.10;101865.44;5128345;28;20499;-74
2022/07/30 01:20:13;;;;;;;11.07;5.95;;;;;;;18.47;58.24;101874.13;5127847;28;20424;-75
2022/07/30 01:22:54;;;;;;;12.18;5.10;;;;;;;18.44;58.26;101875.31;5128571;28;20424;-75
2022/07/30 01:25:53;;;;;;;13.57;6.35;;;;;;;18.41;58.26;101881.03;5127153;28;20430;-75
2022/07/30 01:28:30;;;;;;;14.27;6.40;;;;;;;18.37;58.43;101885.06;5126358;28;20444;-75
2022/07/30 01:31:02;;;;;;;14.67;6.83;;;;;;;18.32;58.33;101877.56;5129789;28;20430;-75
2022/07/30 01:33:38;;;;;;;12.57;6.03;;;;;;;18.32;58.41;101892.75;5135917;28;20788;-75
2022/07/30 01:36:14;;;;;;;16.45;6.53;;;;;;;18.29;58.49;101882.41;5135520;28;20421;-75
2022/07/30 01:38:47;;;;;;;10.27;6.50;;;;;;;18.26;58.60;101880.91;5122697;28;20420;-74
2022/07/30 01:41:20;;;;;;;11.82;5.78;;;;;;;18.23;58.66;101889.28;5130649;28;20426;-74
2022/07/30 01:43:53;;;;;;;13.52;6.00;;;;;;;18.20;58.65;101886.97;5128958;28;20398;-74
2022/07/30 01:46:26;;;;;;;10.83;6.57;;;;;;;18.18;58.71;101887.16;5125035;28;20801;-75
2022/07/30 01:49:00;;;;;;;12.13;6.00;;;;;;;18.09;58.84;101874.84;5126215;28;20457;-75
2022/07/30 01:51:34;;;;;;;9.50;5.70;;;;;;;18.12;58.82;101882.50;5128664;28;20475;-75
2022/07/30 01:54:09;;;;;;;10.73;6.18;;;;;;;18.06;58.98;101882.38;5138325;28;20796;-75
2022/07/30 01:56:45;;;;;;;16.30;6.77;;;;;;;18.07;59.10;101881.34;5126159;28;20768;-75
2022/07/30 01:59:20;;;;;;;12.88;6.18;;;;;;;18.04;59.10;101884.38;5127164;28;20443;-75
2022/07/30 02:01:53;;;;;;;8.55;6.40;;;;;;;18.01;59.17;101884.72;5126813;28;20519;-74
2022/07/30 02:04:26;;;;;;;7.85;5.93;;;;;;;17.97;59.21;101890.41;5128080;28;20424;-75
2022/07/30 02:07:06;;;;;;;10.98;5.45;;;;;;;17.94;59.25;101890.75;5128405;28;20755;-75
2022/07/30 02:09:45;;;;;;;11.32;6.15;;;;;;;17.91;59.22;101891.09;5130019;28;20418;-75
2022/07/30 02:12:28;;;;;;;12.68;6.07;;;;;;;17.89;59.40;101886.94;5127454;28;20423;-75
2022/07/30 02:15:12;;;;;;;10.75;6.00;;;;;;;17.84;59.35;101884.78;5127585;28;20511;-76
2022/07/30 02:17:56;;;;;;;12.43;7.03;;;;;;;17.83;59.44;101888.44;5127346;28;20431;-75
2022/07/30 02:20:30;;;;;;;14.80;5.68;;;;;;;17.79;59.43;101897.00;5123490;28;20960;-76
2022/07/30 02:23:07;;;;;;;14.25;6.60;;;;;;;17.77;59.22;101888.28;5129079;28;20433;-75
2022/07/30 02:25:46;;;;;;;8.07;5.30;;;;;;;17.73;59.51;101893.97;5127839;28;20927;-75
2022/07/30 02:28:22;;;;;;;15.45;6.55;;;;;;;17.61;59.43;101879.28;5127618;28;20428;-74
2022/07/30 02:30:58;;;;;;;13.25;6.43;;;;;;;17.72;59.51;101896.81;5126764;28;20780;-75
2022/07/30 02:33:37;;;;;;;13.27;6.32;;;;;;;17.71;59.57;101900.47;5130477;28;20421;-75
2022/07/30 02:36:11;;;;;;;11.50;5.93;;;;;;;17.70;59.68;101898.81;5126821;28;20742;-76
2022/07/30 02:38:44;;;;;;;13.70;5.70;;;;;;;17.69;59.70;101900.66;5129095;28;20568;-77
2022/07/30 02:41:18;;;;;;;11.65;5.30;;;;;;;17.68;59.76;101895.47;5129107;28;20423;-75
2022/07/30 02:43:53;;;;;;;13.18;6.28;;;;;;;17.56;59.76;101884.34;5125072;28;20428;-74
2022/07/30 02:46:26;;;;;;;11.40;6.38;;;;;;;17.63;59.84;101887.16;5125991;28;20424;-75
2022/07/30 02:48:59;;;;;;;12.52;5.88;;;;;;;17.63;59.92;101896.00;5127806;28;20464;-75
2022/07/30 02:51:33;;;;;;;10.98;5.88;;;;;;;17.60;59.84;101887.50;5128897;28;20507;-75
2022/07/30 02:54:07;;;;;;;10.63;5.70;;;;;;;17.51;60.06;101884.81;5128331;28;20452;-75
2022/07/30 02:56:41;;;;;;;11.63;6.47;;;;;;;17.55;59.90;101879.16;5125639;28;20966;-76
2022/07/30 02:59:17;;;;;;;11.52;6.00;;;;;;;17.43;59.87;101876.00;5128551;28;20907;-75
2022/07/30 03:01:50;;;;;;;10.32;5.95;;;;;;;17.37;59.99;101865.97;5128114;28;20741;-75
2022/07/30 03:04:23;;;;;;;12.43;6.22;;;;;;;17.48;59.96;101879.00;5124436;28;20804;-73
2022/07/30 03:06:57;;;;;;;12.23;6.10;;;;;;;17.45;60.36;101885.50;5135553;28;20436;-75
2022/07/30 03:09:29;;;;;;;14.68;6.35;;;;;;;17.41;60.07;101878.84;5132679;28;20426;-75
2022/07/30 03:12:02;;;;;;;12.10;6.75;;;;;;;17.39;60.03;101870.16;5140901;28;20455;-75
2022/07/30 03:14:36;;;;;;;9.93;6.13;;;;;;;17.37;60.12;101874.81;5130695;28;20424;-75
2022/07/30 03:17:11;;;;;;;10.43;6.22;;;;;;;17.34;60.11;101872.50;5137218;28;20416;-76
2022/07/30 03:19:48;;;;;;;10.65;6.00;;;;;;;17.30;60.27;101871.19;5131618;28;20774;-76
2022/07/30 03:22:21;;;;;;;14.30;6.28;;;;;;;17.22;60.27;101869.38;5133757;28;20740;-76
2022/07/30 03:24:54;;;;;;;12.75;5.68;;;;;;;17.26;60.38;101876.03;5127775;28;20419;-76
2022/07/30 03:27:27;;;;;;;14.38;6.45;;;;;;;17.23;60.27;101875.53;5130223;28;20421;-75
2022/07/30 03:30:02;;;;;;;9.48;5.72;;;;;;;17.18;60.28;101877.84;5129564;28;20420;-75
2022/07/30 03:32:36;;;;;;;10.48;5.97;;;;;;;17.19;60.52;101888.38;5131604;28;20432;-74
2022/07/30 03:35:10;;;;;;;11.15;5.72;;;;;;;17.16;60.43;101891.38;5134662;28;20501;-76
2022/07/30 03:37:42;;;;;;;12.85;6.80;;;;;;;17.14;60.41;101888.03;5127574;28;21085;-75
2022/07/30 03:40:15;;;;;;;11.95;7.13;;;;;;;17.12;60.53;101889.19;5134260;28;20819;-74
2022/07/30 03:42:48;;;;;;;16.27;7.07;;;;;;;17.11;60.53;101892.88;5135193;28;20882;-76
2022/07/30 03:45:22;;;;;;;8.82;5.80;;;;;;;17.11;60.59;101890.22;5128562;28;20757;-75
2022/07/30 03:47:55;;;;;;;11.57;6.70;;;;;;;17.13;60.63;101890.91;5130364;28;20420;-74
2022/07/30 03:50:29;;;;;;;11.93;6.38;;;;;;;17.14;60.64;101889.88;5129724;28;20528;-75
2022/07/30 03:53:01;;;;;;;11.55;6.13;;;;;;;17.14;60.67;101888.03;5135933;28;20424;-75
2022/07/30 03:55:34;;;;;;;11.23;6.60;;;;;;;17.15;60.77;101889.69;5128809;28;20534;-76
2022/07/30 03:58:08;;;;;;;7.70;6.22;;;;;;;17.13;60.74;101890.91;5129684;28;20936;-76
2022/07/30 04:00:42;;;;;;;13.10;6.80;;;;;;;17.15;60.77;101899.53;5132509;28;21997;-76
2022/07/30 04:03:24;;;;;;;10.38;6.45;;;;;;;17.14;60.72;101890.72;5132575;28;20436;-74
2022/07/30 04:05:56;;;;;;;8.55;5.82;;;;;;;17.14;60.95;101896.06;5127525;28;20435;-76
2022/07/30 04:08:29;;;;;;;11.13;6.07;;;;;;;17.14;60.88;101897.88;5131181;28;20412;-75
2022/07/30 04:11:01;;;;;;;11.30;6.18;;;;;;;17.12;60.93;101899.88;5128857;28;20416;-76
2022/07/30 04:13:33;;;;;;;7.93;5.70;;;;;;;17.11;60.97;101900.91;5121739;28;20903;-76
2022/07/30 04:16:14;;;;;;;15.98;6.35;;;;;;;17.10;61.02;101908.06;5113200;28;20436;-75
2022/07/30 04:18:51;;;;;;;12.27;6.13;;;;;;;17.10;61.01;101912.59;5110882;28;21575;-75
2022/07/30 04:21:26;;;;;;;9.75;5.53;;;;;;;17.02;61.11;101895.53;5109527;28;20528;-75
2022/07/30 04:24:00;;;;;;;11.13;6.00;;;;;;;16.93;60.98;101880.53;5111813;28;20425;-75
2022/07/30 04:26:35;;;;;;;13.80;6.10;;;;;;;17.12;61.08;101915.91;5110397;28;20434;-76
2022/07/30 04:29:10;;;;;;;15.30;6.63;;;;;;;17.11;61.07;101909.72;5108427;28;20430;-75
2022/07/30 04:31:44;;;;;;;13.40;5.88;;;;;;;17.12;61.21;101910.56;5110347;28;20413;-75
2022/07/30 04:34:17;;;;;;;9.73;5.15;;;;;;;17.15;61.40;101910.22;5111888;28;20433;-75
2022/07/30 04:36:49;;;;;;;14.32;5.72;;;;;;;17.17;61.28;101908.22;5112439;28;20438;-75
2022/07/30 04:39:21;;;;;;;13.90;6.07;;;;;;;17.19;61.26;101911.59;5108915;28;20416;-72
2022/07/30 04:41:53;;;;;;;10.80;6.05;;;;;;;17.23;61.25;101907.56;5115031;28;20516;-75
2022/07/30 04:44:26;;;;;;;12.90;5.53;;;;;;;17.24;61.31;101910.06;5109674;28;20436;-75
2022/07/30 04:46:59;;;;;;;13.13;5.00;;;;;;;17.28;61.32;101910.53;5109120;28;20436;-76
2022/07/30 04:49:32;;;;;;;13.45;5.88;;;;;;;17.33;61.30;101913.56;5108813;28;20419;-75
2022/07/30 04:52:07;;;;;;;11.90;4.75;;;;;;;17.36;61.50;101907.88;5113288;28;20919;-76
2022/07/30 04:54:44;;;;;;;11.25;4.90;;;;;;;17.39;61.31;101912.88;5108335;28;20441;-74
2022/07/30 04:57:17;;;;;;;9.43;4.60;;;;;;;17.44;61.35;101918.56;5111909;28;20910;-74
2022/07/30 04:59:50;;;;;;;16.40;5.00;;;;;;;17.50;61.41;101915.22;5109144;28;20423;-76
2022/07/30 05:02:28;;;;;;;9.93;4.65;;;;;;;17.58;61.44;101916.19;5112938;28;20414;-75
2022/07/30 05:05:02;;;;;;;8.57;4.90;;;;;;;17.63;61.25;101909.34;5110422;28;20414;-75
2022/07/30 05:07:34;;;;;;;7.55;4.60;;;;;;;17.75;61.29;101917.84;5111679;28;20457;-75
2022/07/30 05:10:07;;;;;;;13.05;5.18;;;;;;;17.84;61.29;101911.50;5109121;28;20438;-74
2022/07/30 05:12:40;;;;;;;9.52;4.22;;;;;;;17.95;61.12;101916.47;5116902;28;20505;-76
2022/07/30 05:15:13;;;;;;;11.00;4.68;;;;;;;18.05;61.00;101913.59;5130104;28;20878;-76
2022/07/30 05:17:46;;;;;;;7.13;3.90;;;;;;;18.13;60.98;101916.25;5128726;28;20919;-75
2022/07/30 05:20:19;;;;;;;9.80;3.95;;;;;;;18.24;60.94;101911.50;5128165;28;20502;-75
2022/07/30 05:22:51;;;;;;;10.73;4.95;;;;;;;18.35;60.80;101922.66;5126506;28;20426;-75
2022/07/30 05:25:23;;;;;;;9.98;4.20;;;;;;;18.43;60.73;101927.97;5126804;28;20434;-75
2022/07/30 05:27:57;;;;;;;6.47;3.47;;;;;;;18.55;60.70;101930.25;5127824;28;20420;-74
2022/07/30 05:30:29;;;;;;;7.30;3.67;;;;;;;18.75;60.56;101936.03;5130072;28;20761;-75
2022/07/30 05:33:02;;;;;;;6.32;2.88;;;;;;;18.93;60.45;101938.44;5128929;28;20901;-75
2022/07/30 05:35:35;;;;;;;4.50;2.97;;;;;;;19.11;60.29;101938.97;5127390;28;20532;-76
2022/07/30 05:38:07;;;;;;;8.45;3.17;;;;;;;19.76;59.65;101943.75;5129327;28;20426;-75
2022/07/30 05:40:39;;;;;;;5.68;2.60;;;;;;;21.13;57.83;101943.97;5126888;28;20773;-76
2022/07/30 05:43:12;;;;;;;9.25;2.72;;;;;;;21.96;56.90;101948.78;5128550;28;20415;-75
2022/07/30 05:45:44;;;;;;;6.70;2.33;;;;;;;22.27;56.67;101946.47;5127995;28;20422;-74
2022/07/30 05:48:17;;;;;;;6.30;2.50;;;;;;;22.55;56.11;101949.06;5128015;28;20432;-74
2022/07/30 05:50:50;;;;;;;5.90;1.85;;;;;;;22.70;55.76;101948.06;5128473;28;20481;-74
2022/07/30 05:53:22;;;;;;;5.50;2.63;;;;;;;22.61;55.63;101954.66;5127497;28;20485;-75
2022/07/30 05:55:55;;;;;;;5.93;2.30;;;;;;;22.46;55.48;101955.66;5132290;28;20538;-74
2022/07/30 05:58:27;;;;;;;8.68;2.60;;;;;;;22.72;55.37;101954.06;5128666;28;20831;-76
2022/07/30 06:00:59;;;;;;;6.75;2.40;;;;;;;24.02;53.61;101962.63;5129734;28;20505;-76
2022/07/30 06:03:33;;;;;;;7.68;2.53;;;;;;;25.00;52.28;101948.91;5129263;28;20792;-76
2022/07/30 06:06:07;;;;;;;7.28;1.80;;;;;;;26.46;50.32;101947.47;5128104;28;20521;-75
2022/07/30 06:08:39;;;;;;;3.22;1.55;;;;;;;28.02;48.26;101952.69;5127237;28;20435;-76
2022/07/30 06:11:11;;;;;;;6.55;2.08;;;;;;;29.40;46.11;101936.22;5137506;28;20432;-76
2022/07/30 06:13:44;;;;;;;3.28;1.38;;;;;;;30.76;44.30;101951.00;5126135;28;20436;-75
2022/07/30 06:16:16;;;;;;;4.57;1.40;;;;;;;31.89;42.79;101955.41;5127919;28;20400;-76
2022/07/30 06:18:50;;;;;;;4.60;1.58;;;;;;;32.86;41.07;101947.50;5125666;28;20436;-76
2022/07/30 06:21:22;;;;;;;5.13;1.17;;;;;;;33.77;40.06;101951.25;5128288;28;20428;-75
2022/07/30 06:23:54;;;;;;;5.23;1.70;;;;;;;34.56;38.52;101943.19;5125251;28;20424;-76
2022/07/30 06:26:27;;;;;;;5.32;1.30;;;;;;;35.32;37.59;101959.06;5128391;28;20427;-76
2022/07/30 06:28:59;;;;;;;4.13;1.30;;;;;;;35.99;36.58;101961.09;5127953;28;20599;-76
2022/07/30 06:31:31;;;;;;;6.60;1.50;;;;;;;36.53;35.41;101948.00;5126886;28;20442;-77
2022/07/30 06:34:05;;;;;;;4.18;0.95;;;;;;;36.98;34.98;101946.44;5129848;28;20958;-76
2022/07/30 06:36:37;;;;;;;4.43;1.00;;;;;;;37.36;33.93;101943.56;5135479;28;20438;-77
2022/07/30 06:39:09;;;;;;;3.97;1.27;;;;;;;37.63;33.47;101953.81;5138211;28;20421;-76
2022/07/30 06:41:42;;;;;;;2.67;1.00;;;;;;;38.05;32.76;101949.91;5133831;28;20865;-77
2022/07/30 06:44:14;;;;;;;2.55;0.98;;;;;;;38.30;32.11;101947.69;5130534;28;20435;-76
2022/07/30 06:46:46;;;;;;;3.28;1.00;;;;;;;38.52;31.57;101950.50;5130097;28;20428;-76
2022/07/30 06:49:20;;;;;;;2.03;0.95;;;;;;;38.85;31.11;101955.00;5127493;28;20444;-76
2022/07/30 06:51:52;;;;;;;4.70;1.08;;;;;;;39.12;30.61;101962.31;5133519;28;20431;-76
2022/07/30 06:54:25;;;;;;;4.65;1.23;;;;;;;39.16;30.37;101950.31;5129417;28;20416;-75
2022/07/30 06:56:57;;;;;;;2.63;0.90;;;;;;;39.19;30.09;101954.38;5131660;28;20506;-75
2022/07/30 06:59:29;;;;;;;4.07;1.30;;;;;;;38.97;29.87;101952.47;5137698;28;20439;-75
2022/07/30 07:02:01;;;;;;;2.08;0.90;;;;;;;38.85;29.83;101955.00;5129530;28;20455;-76
2022/07/30 07:04:35;;;;;;;2.25;0.75;;;;;;;38.89;29.48;101951.28;5133188;28;20582;-76
2022/07/30 07:07:08;;;;;;;3.50;1.15;;;;;;;38.96;29.23;101950.84;5135097;28;20909;-77
2022/07/30 07:09:40;;;;;;;1.38;0.60;;;;;;;39.02;29.13;101948.75;5145625;28;20428;-76
2022/07/30 07:12:12;;;;;;;1.60;0.70;;;;;;;39.07;28.85;101951.41;5130363;28;20528;-78
2022/07/30 07:14:45;;;;;;;2.25;0.90;;;;;;;39.17;28.61;101951.13;5131734;28;20440;-78
2022/07/30 07:17:17;;;;;;;2.45;0.75;;;;;;;39.11;28.46;101930.28;5133573;28;20412;-79
2022/07/30 07:19:51;;;;;;;3.35;1.20;;;;;;;39.13;28.40;101955.66;5136558;28;20427;-78
2022/07/30 07:22:23;;;;;;;2.65;1.00;;;;;;;38.97;28.34;101955.25;5128603;28;20455;-76
2022/07/30 07:24:56;;;;;;;3.85;1.10;;;;;;;38.67;28.41;101956.78;5134748;28;20437;-77
2022/07/30 07:27:28;;;;;;;2.07;1.00;;;;;;;38.70;28.42;101958.94;5132445;28;20558;-80
2022/07/30 07:30:01;;;;;;;2.10;0.77;;;;;;;38.84;28.10;101948.66;5132460;28;20420;-79
2022/07/30 07:32:33;;;;;;;3.40;0.88;;;;;;;39.12;27.79;101954.03;5128962;28;20514;-80
2022/07/30 07:35:08;;;;;;;2.13;0.80;;;;;;;39.16;27.73;101955.03;5129307;28;20427;-78
2022/07/30 07:37:40;;;;;;;1.02;0.63;;;;;;;39.26;27.36;101951.16;5130957;28;20442;-79
2022/07/30 07:40:13;;;;;;;3.25;1.10;;;;;;;39.37;27.28;101953.34;5132451;28;20935;-80
2022/07/30 07:42:45;;;;;;;2.67;1.02;;;;;;;39.47;27.23;101948.69;5129003;28;20431;-80
2022/07/30 07:45:18;;;;;;;2.72;0.88;;;;;;;39.49;27.05;101951.91;5131155;28;20539;-80
2022/07/30 07:47:51;;;;;;;6.20;1.02;;;;;;;39.32;27.20;101945.19;5131116;28;20446;-80
2022/07/30 07:50:24;;;;;;;3.08;0.98;;;;;;;39.34;27.17;101956.75;5133743;28;20519;-79
2022/07/30 07:52:57;;;;;;;2.92;0.90;;;;;;;39.05;27.36;101923.25;5131779;28;20691;-79
2022/07/30 07:55:29;;;;;;;2.33;0.68;;;;;;;39.24;27.30;101962.53;5146596;28;20423;-80
2022/07/30 07:58:02;;;;;;;2.15;1.05;;;;;;;39.11;27.41;101963.44;5132643;28;20788;-80
2022/07/30 08:00:34;;;;;;;2.10;0.80;;;;;;;38.99;27.37;101955.72;5132115;28;20731;-79
2022/07/30 08:03:07;;;;;;;4.10;0.80;;;;;;;38.86;27.64;101967.66;5130333;28;20420;-77
2022/07/30 08:05:40;;;;;;;4.57;0.90;;;;;;;38.73;27.69;101963.81;5131360;28;20436;-77
2022/07/30 08:08:13;;;;;;;2.53;1.10;;;;;;;38.46;27.76;101961.97;5133130;28;20420;-79
2022/07/30 08:10:45;;;;;;;3.08;0.88;;;;;;;38.23;28.03;101961.94;5132017;28;20408;-81
2022/07/30 08:13:17;;;;;;;2.40;0.82;;;;;;;38.11;27.85;101966.34;5134604;28;20491;-80
2022/07/30 08:15:50;;;;;;;2.85;0.90;;;;;;;38.06;27.93;101959.84;5134486;28;20428;-78
2022/07/30 08:18:22;;;;;;;2.70;0.82;;;;;;;37.99;28.00;101962.19;5131637;28;20446;-79
2022/07/30 08:20:56;;;;;;;3.58;1.02;;;;;;;37.92;27.96;101960.94;5131897;28;20422;-82
2022/07/30 08:23:28;;;;;;;1.75;0.63;;;;;;;37.86;27.83;101957.47;5133301;28;20419;-80
2022/07/30 08:26:01;;;;;;;1.98;0.90;;;;;;;37.48;27.95;101952.19;5133330;28;20517;-80
2022/07/30 08:28:35;;;;;;;2.85;0.70;;;;;;;37.17;28.48;101957.44;5130211;28;20419;-79
2022/07/30 08:31:07;;;;;;;2.95;0.98;;;;;;;36.97;28.69;101955.81;5137796;28;20427;-81
2022/07/30 08:33:39;;;;;;;2.07;0.63;;;;;;;36.86;28.58;101962.63;5134038;28;20422;-77
2022/07/30 08:36:13;;;;;;;3.45;0.95;;;;;;;36.74;28.51;101965.84;5133312;28;20463;-79
2022/07/30 08:38:45;;;;;;;2.72;0.80;;;;;;;36.59;28.72;101966.88;5129111;28;20516;-79
2022/07/30 08:41:19;;;;;;;3.58;1.02;;;;;;;36.38;28.63;101949.00;5134936;28;20489;-80
2022/07/30 08:43:52;;;;;;;5.75;1.10;;;;;;;36.11;28.42;101958.75;5128827;28;20422;-78
2022/07/30 08:46:27;;;;;;;3.83;0.80;;;;;;;35.64;28.81;101957.63;5127899;28;20425;-79
2022/07/30 08:49:00;;;;;;;1.98;0.80;;;;;;;35.36;29.03;101963.97;5130428;28;20436;-80
2022/07/30 08:51:34;;;;;;;2.27;0.90;;;;;;;35.17;28.96;101967.44;5129889;28;20745;-80
2022/07/30 08:54:07;;;;;;;3.10;0.88;;;;;;;35.02;28.89;101965.63;5129399;28;20420;-81
2022/07/30 08:56:39;;;;;;;2.70;0.90;;;;;;;34.70;29.19;101946.94;5129081;28;20424;-80
2022/07/30 08:59:11;;;;;;;2.03;0.83;;;;;;;34.78;28.93;101976.53;5129549;28;20408;-80
2022/07/30 09:01:46;;;;;;;2.78;0.90;;;;;;;34.62;29.22;101972.25;5132029;28;20502;-83
2022/07/30 09:04:18;;;;;;;1.92;0.90;;;;;;;34.34;28.82;101960.84;5128274;28;20435;-81
2022/07/30 09:06:52;;;;;;;4.40;1.10;;;;;;;34.15;28.92;101957.13;5131379;28;20495;-83
2022/07/30 09:09:24;;;;;;;3.08;0.90;;;;;;;34.15;29.24;101973.59;5123902;28;20511;-80
2022/07/30 09:11:56;;;;;;;2.27;1.10;;;;;;;33.97;28.91;101967.63;5124959;28;20432;-82
2022/07/30 09:14:29;;;;;;;3.58;1.27;;;;;;;33.75;29.19;101984.38;5128704;28;20437;-81
2022/07/30 09:17:01;;;;;;;3.50;1.10;;;;;;;33.72;29.19;101975.91;5130664;28;20430;-83
2022/07/30 09:19:34;;;;;;;5.32;1.10;;;;;;;33.49;29.03;101960.88;5128259;28;20424;-81
2022/07/30 09:22:07;;;;;;;4.35;1.35;;;;;;;33.42;29.36;101983.09;5130068;28;20432;-78
2022/07/30 09:24:43;;;;;;;2.55;1.15;;;;;;;33.32;29.24;101965.81;5131130;28;20511;-77
2022/07/30 09:27:15;;;;;;;4.83;1.13;;;;;;;33.30;29.27;101974.34;5141715;28;20820;-79
2022/07/30 09:29:58;;;;;;;4.15;1.40;;;;;;;33.04;29.08;101955.16;5138749;28;21000;-79
2022/07/30 09:32:48;;;;;;;3.53;1.25;;;;;;;33.17;29.02;101970.25;5142348;28;20764;-78
2022/07/30 09:35:21;;;;;;;3.85;1.38;;;;;;;33.05;28.88;101966.97;5133013;28;20423;-79
2022/07/30 09:38:03;;;;;;;3.67;1.30;;;;;;;32.72;28.75;101938.19;5125031;28;20706;-79
2022/07/30 09:40:35;;;;;;;3.75;1.40;;;;;;;32.88;28.70;101967.19;5127468;28;20420;-78
2022/07/30 09:43:11;;;;;;;3.17;1.38;;;;;;;32.87;28.45;101965.56;5132051;28;20430;-79
2022/07/30 09:45:51;;;;;;;4.70;1.50;;;;;;;32.89;28.31;101966.09;5132463;28;20415;-78
2022/07/30 09:48:26;;;;;;;3.15;1.40;;;;;;;32.86;28.44;101960.34;5128403;28;20430;-78
2022/07/30 09:50:58;;;;;;;6.10;1.80;;;;;;;32.57;28.75;101955.38;5131976;28;20962;-78
2022/07/30 09:53:32;;;;;;;9.15;1.67;;;;;;;32.45;28.45;101963.84;5131143;28;20446;-77
2022/07/30 09:56:25;;;;;;;6.03;1.88;;;;;;;32.34;28.54;101962.97;5131258;28;20909;-79
2022/07/30 09:58:57;;;;;;;3.38;1.60;;;;;;;32.31;28.50;101963.50;5127894;28;20433;-78
2022/07/30 10:01:49;;;;;;;3.20;1.70;;;;;;;32.16;28.37;101933.38;5134556;28;20438;-79
2022/07/30 10:04:25;;;;;;;5.87;1.80;;;;;;;32.36;28.27;101951.75;5125188;28;20864;-76
2022/07/30 10:06:59;;;;;;;4.22;1.70;;;;;;;32.31;28.17;101962.69;5123400;28;20450;-78
2022/07/30 10:09:36;;;;;;;3.87;1.77;;;;;;;32.25;28.01;101963.75;5126335;28;20435;-77
2022/07/30 10:12:09;;;;;;;6.88;2.10;;;;;;;32.15;28.25;101959.91;5135546;28;20918;-78
2022/07/30 10:14:46;;;;;;;2.80;1.58;;;;;;;32.09;28.33;101960.16;5129421;28;20432;-77
2022/07/30 10:17:19;;;;;;;4.78;1.45;;;;;;;31.96;28.14;101950.53;5132785;28;20444;-77
2022/07/30 10:19:51;;;;;;;5.55;1.67;;;;;;;32.03;28.27;101964.78;5134503;28;20430;-78
2022/07/30 10:22:24;;;;;;;3.70;1.50;;;;;;;32.02;28.09;101965.03;5133324;28;20415;-78
2022/07/30 10:24:58;;;;;;;3.27;1.67;;;;;;;31.96;28.10;101966.91;5136465;28;20431;-79
2022/07/30 10:27:31;;;;;;;3.27;1.20;;;;;;;31.88;28.07;101961.94;5134495;28;20424;-77
2022/07/30 10:30:06;;;;;;;5.05;1.90;;;;;;;31.92;28.07;101965.81;5133260;28;20424;-78
2022/07/30 10:32:38;;;;;;;5.88;2.05;;;;;;;31.81;27.75;101962.19;5133617;28;20785;-80
2022/07/30 10:35:12;;;;;;;4.70;1.75;;;;;;;31.85;28.20;101976.13;5141699;28;20558;-83
2022/07/30 10:37:49;;;;;;;4.93;1.45;;;;;;;31.86;27.89;101972.31;5131233;28;20452;-78
2022/07/30 10:40:30;;;;;;;4.30;1.50;;;;;;;31.73;27.80;101962.69;5132046;28;20494;-78
2022/07/30 10:43:41;;;;;;;5.50;1.60;;;;;;;31.77;27.86;101971.97;5128812;28;20431;-78
2022/07/30 10:46:24;;;;;;;5.65;1.50;;;;;;;31.67;28.00;101961.81;5127702;28;20428;-79
2022/07/30 10:49:09;;;;;;;5.97;1.38;;;;;;;31.61;27.95;101960.16;5126415;28;20872;-79
2022/07/30 10:51:47;;;;;;;3.35;1.45;;;;;;;31.79;27.84;101971.72;5129889;28;20416;-84
2022/07/30 10:54:41;;;;;;;3.97;1.30;;;;;;;31.79;27.73;101969.81;5132251;28;21200;-79
2022/07/30 10:57:17;;;;;;;4.27;1.80;;;;;;;31.73;27.74;101967.31;5133678;28;20416;-77
2022/07/30 11:00:13;;;;;;;2.95;1.10;;;;;;;31.80;27.65;101973.38;5133138;28;20436;-79
2022/07/30 11:03:18;;;;;;;4.07;1.40;;;;;;;31.82;27.64;101973.94;5130441;28;20416;-78
2022/07/30 11:05:51;;;;;;;4.63;1.75;;;;;;;31.81;27.83;101975.84;5132340;28;20514;-78
2022/07/30 11:08:39;;;;;;;3.28;1.48;;;;;;;31.87;27.90;101965.78;5131795;28;20424;-77
2022/07/30 11:11:50;;;;;;;6.97;1.63;;;;;;;32.02;27.69;101970.50;5141659;28;20756;-77
2022/07/30 11:14:59;;;;;;;3.47;1.20;;;;;;;32.11;27.99;101969.72;5126221;28;20412;-78
2022/07/30 11:18:01;;;;;;;3.88;0.88;;;;;;;32.14;27.98;101952.78;5133053;28;20897;-79
2022/07/30 11:20:34;;;;;;;2.33;0.90;;;;;;;32.14;27.89;101946.50;5132171;28;20905;-78
2022/07/30 11:23:33;;;;;;;2.60;0.82;;;;;;;32.12;28.24;101962.34;5134045;28;20458;-78
2022/07/30 11:26:05;;;;;;;3.05;1.15;;;;;;;32.02;28.17;101954.91;5127770;28;20432;-78
2022/07/30 11:28:41;;;;;;;4.57;1.55;;;;;;;32.08;28.07;101963.97;5131140;28;20459;-77
2022/07/30 11:31:30;;;;;;;2.83;1.08;;;;;;;31.98;28.18;101950.25;5133050;28;20479;-77
2022/07/30 11:34:29;;;;;;;1.92;1.05;;;;;;;32.12;27.93;101962.34;5129796;28;20416;-77
2022/07/30 11:37:15;;;;;;;2.28;1.00;;;;;;;32.11;28.02;101953.31;5135639;28;20956;-80
2022/07/30 11:40:12;;;;;;;1.90;1.20;;;;;;;32.16;28.00;101960.72;5134274;28;20426;-79
2022/07/30 11:42:45;;;;;;;2.50;0.90;;;;;;;32.10;28.14;101970.00;5127434;28;20426;-80
2022/07/30 11:45:29;;;;;;;3.90;0.95;;;;;;;32.09;28.27;101965.63;5130356;28;20416;-79
2022/07/30 11:48:11;;;;;;;2.90;1.00;;;;;;;32.04;28.07;101958.22;5127823;28;20933;-78
2022/07/30 11:50:46;;;;;;;4.13;1.13;;;;;;;32.06;28.29;101964.25;5130495;28;20499;-77
2022/07/30 11:53:20;;;;;;;2.42;1.17;;;;;;;31.95;28.45;101962.53;5126832;28;20476;-81
2022/07/30 11:55:55;;;;;;;1.38;0.80;;;;;;;31.88;28.53;101953.75;5129252;28;20770;-77
2022/07/30 11:58:30;;;;;;;3.90;1.00;;;;;;;31.75;28.48;101927.75;5132511;28;20801;-78